Salt Lake City, Utah
Current Conditions -  °F | °C
As of 12:53 PM on Sunday 23 Nov 2014 (Local Time) from KSLC Reporting Station
Broken Clouds Broken Clouds  
Wind Chill: -2°   Ceiling: 3900
Heat Index:   Visibility: 10mi
Dew Point: -4°   Wind: 16mph
Humidity: 59%   Direction: 280°W
Pressure: 30.23"   Gusts: NA
Location:  40.76°N, 111.88°W
Report Text: KSLC 231953Z 28014KT 10SM BKN039 BKN047 BKN055 03/M04 A3023 RMK AO2 SLP240 SH VC SE T00281044
Loading
Personal Weather Stations






























Interactive Weather Map New forecast layout! Learn more

10-Day Weather Forecast

Advertisements
Track Severe Weather on mobile